sensor_id;sensor_type;location;lat;lon;timestamp;temperature;humidity
2050;DHT22;8478;49.208;8.806;2023-03-21T00:01:35;11.90;99.90
2050;DHT22;8478;49.208;8.806;2023-03-21T00:04:01;11.90;99.90
2050;DHT22;8478;49.208;8.806;2023-03-21T00:06:26;11.90;99.90
2050;DHT22;8478;49.208;8.806;2023-03-21T00:08:52;11.90;99.90
2050;DHT22;8478;49.208;8.806;2023-03-21T00:11:18;11.90;99.90
2050;DHT22;8478;49.208;8.806;2023-03-21T00:13:43;11.90;99.90
2050;DHT22;8478;49.208;8.806;2023-03-21T00:16:13;11.90;99.90
2050;DHT22;8478;49.208;8.806;2023-03-21T00:18:46;11.90;99.90
2050;DHT22;8478;49.208;8.806;2023-03-21T00:21:15;11.90;99.90
2050;DHT22;8478;49.208;8.806;2023-03-21T00:23:42;11.90;99.90
2050;DHT22;8478;49.208;8.806;2023-03-21T00:26:09;11.90;99.90
2050;DHT22;8478;49.208;8.806;2023-03-21T00:28:36;11.90;99.90
2050;DHT22;8478;49.208;8.806;2023-03-21T00:31:02;11.90;99.90
2050;DHT22;8478;49.208;8.806;2023-03-21T00:33:28;11.90;99.90
2050;DHT22;8478;49.208;8.806;2023-03-21T00:35:54;11.90;99.90
2050;DHT22;8478;49.208;8.806;2023-03-21T00:38:22;11.90;99.90
2050;DHT22;8478;49.208;8.806;2023-03-21T00:40:48;11.90;99.90
2050;DHT22;8478;49.208;8.806;2023-03-21T00:43:15;11.90;99.90
2050;DHT22;8478;49.208;8.806;2023-03-21T00:45:49;11.90;99.90
2050;DHT22;8478;49.208;8.806;2023-03-21T00:48:16;11.90;99.90
2050;DHT22;8478;49.208;8.806;2023-03-21T00:50:44;11.90;99.90
2050;DHT22;8478;49.208;8.806;2023-03-21T00:53:11;11.90;99.90
2050;DHT22;8478;49.208;8.806;2023-03-21T00:55:37;11.90;99.90
2050;DHT22;8478;49.208;8.806;2023-03-21T00:58:05;11.90;99.90
2050;DHT22;8478;49.208;8.806;2023-03-21T01:00:32;11.90;99.90
2050;DHT22;8478;49.208;8.806;2023-03-21T01:03:01;11.90;99.90
2050;DHT22;8478;49.208;8.806;2023-03-21T01:05:36;11.90;99.90
2050;DHT22;8478;49.208;8.806;2023-03-21T01:08:20;11.90;99.90
2050;DHT22;8478;49.208;8.806;2023-03-21T01:10:48;11.90;99.90
2050;DHT22;8478;49.208;8.806;2023-03-21T01:13:15;11.90;99.90
2050;DHT22;8478;49.208;8.806;2023-03-21T01:15:53;11.80;99.90
2050;DHT22;8478;49.208;8.806;2023-03-21T01:18:21;11.80;99.90
2050;DHT22;8478;49.208;8.806;2023-03-21T01:20:48;11.80;99.90
2050;DHT22;8478;49.208;8.806;2023-03-21T01:23:15;11.80;99.90
2050;DHT22;8478;49.208;8.806;2023-03-21T01:25:41;11.80;99.90
2050;DHT22;8478;49.208;8.806;2023-03-21T01:28:07;11.80;99.90
2050;DHT22;8478;49.208;8.806;2023-03-21T01:30:33;11.90;99.90
2050;DHT22;8478;49.208;8.806;2023-03-21T01:32:59;11.80;99.90
2050;DHT22;8478;49.208;8.806;2023-03-21T01:35:25;11.80;99.90
2050;DHT22;8478;49.208;8.806;2023-03-21T01:37:51;11.80;99.90
2050;DHT22;8478;49.208;8.806;2023-03-21T01:40:26;11.80;99.90
2050;DHT22;8478;49.208;8.806;2023-03-21T01:42:52;11.80;99.90
2050;DHT22;8478;49.208;8.806;2023-03-21T01:48:22;11.80;99.90
2050;DHT22;8478;49.208;8.806;2023-03-21T01:50:48;11.80;99.90
2050;DHT22;8478;49.208;8.806;2023-03-21T01:53:16;11.80;99.90
2050;DHT22;8478;49.208;8.806;2023-03-21T01:55:44;11.80;99.90
2050;DHT22;8478;49.208;8.806;2023-03-21T01:58:13;11.80;99.90
2050;DHT22;8478;49.208;8.806;2023-03-21T02:00:43;11.80;99.90
2050;DHT22;8478;49.208;8.806;2023-03-21T02:03:10;11.80;99.90
2050;DHT22;8478;49.208;8.806;2023-03-21T02:06:19;11.80;99.90
2050;DHT22;8478;49.208;8.806;2023-03-21T02:08:37;11.80;99.90
2050;DHT22;8478;49.208;8.806;2023-03-21T02:11:03;11.80;99.90
2050;DHT22;8478;49.208;8.806;2023-03-21T02:13:28;11.80;99.90
2050;DHT22;8478;49.208;8.806;2023-03-21T02:18:55;11.80;99.90
2050;DHT22;8478;49.208;8.806;2023-03-21T02:21:30;11.80;99.90
2050;DHT22;8478;49.208;8.806;2023-03-21T02:24:04;11.80;99.90
2050;DHT22;8478;49.208;8.806;2023-03-21T02:37:56;11.80;99.90
2050;DHT22;8478;49.208;8.806;2023-03-21T02:46:16;11.80;99.90
2050;DHT22;8478;49.208;8.806;2023-03-21T02:48:59;11.80;99.90
2050;DHT22;8478;49.208;8.806;2023-03-21T02:51:29;11.80;99.90
2050;DHT22;8478;49.208;8.806;2023-03-21T02:54:01;11.80;99.90
2050;DHT22;8478;49.208;8.806;2023-03-21T02:56:30;11.80;99.90
2050;DHT22;8478;49.208;8.806;2023-03-21T02:58:59;11.80;99.90
2050;DHT22;8478;49.208;8.806;2023-03-21T03:01:24;11.80;99.90
2050;DHT22;8478;49.208;8.806;2023-03-21T03:03:50;11.80;99.90
2050;DHT22;8478;49.208;8.806;2023-03-21T03:06:20;11.80;99.90
2050;DHT22;8478;49.208;8.806;2023-03-21T03:11:37;11.80;99.90
2050;DHT22;8478;49.208;8.806;2023-03-21T03:14:26;11.80;99.90
2050;DHT22;8478;49.208;8.806;2023-03-21T03:23:29;11.80;99.90
2050;DHT22;8478;49.208;8.806;2023-03-21T03:25:41;11.70;99.90
2050;DHT22;8478;49.208;8.806;2023-03-21T03:28:08;11.80;99.90
2050;DHT22;8478;49.208;8.806;2023-03-21T03:30:36;11.80;99.90
2050;DHT22;8478;49.208;8.806;2023-03-21T03:33:05;11.80;99.90
2050;DHT22;8478;49.208;8.806;2023-03-21T03:35:32;11.80;99.90
2050;DHT22;8478;49.208;8.806;2023-03-21T03:38:01;11.80;99.90
2050;DHT22;8478;49.208;8.806;2023-03-21T03:40:40;11.80;99.90
2050;DHT22;8478;49.208;8.806;2023-03-21T03:43:10;11.80;99.90
2050;DHT22;8478;49.208;8.806;2023-03-21T03:45:49;11.80;99.90
2050;DHT22;8478;49.208;8.806;2023-03-21T03:48:26;11.80;99.90
2050;DHT22;8478;49.208;8.806;2023-03-21T03:51:06;11.80;99.90
2050;DHT22;8478;49.208;8.806;2023-03-21T03:53:37;11.80;99.90
2050;DHT22;8478;49.208;8.806;2023-03-21T03:56:06;11.80;99.90
2050;DHT22;8478;49.208;8.806;2023-03-21T03:58:34;11.80;99.90
2050;DHT22;8478;49.208;8.806;2023-03-21T04:01:02;11.70;99.90
2050;DHT22;8478;49.208;8.806;2023-03-21T04:03:28;11.70;99.90
2050;DHT22;8478;49.208;8.806;2023-03-21T04:05:54;11.70;99.90
2050;DHT22;8478;49.208;8.806;2023-03-21T04:08:19;11.70;99.90
2050;DHT22;8478;49.208;8.806;2023-03-21T04:10:47;11.70;99.90
2050;DHT22;8478;49.208;8.806;2023-03-21T04:13:13;11.70;99.90
2050;DHT22;8478;49.208;8.806;2023-03-21T04:15:39;11.70;99.90
2050;DHT22;8478;49.208;8.806;2023-03-21T04:18:05;11.70;99.90
2050;DHT22;8478;49.208;8.806;2023-03-21T04:20:31;11.70;99.90
2050;DHT22;8478;49.208;8.806;2023-03-21T04:22:57;11.70;99.90
2050;DHT22;8478;49.208;8.806;2023-03-21T04:25:23;11.70;99.90
2050;DHT22;8478;49.208;8.806;2023-03-21T04:27:49;11.70;99.90
2050;DHT22;8478;49.208;8.806;2023-03-21T04:30:15;11.70;99.90
2050;DHT22;8478;49.208;8.806;2023-03-21T04:32:41;11.70;99.90
2050;DHT22;8478;49.208;8.806;2023-03-21T04:35:07;11.70;99.90
2050;DHT22;8478;49.208;8.806;2023-03-21T04:37:34;11.70;99.90
2050;DHT22;8478;49.208;8.806;2023-03-21T04:40:02;11.70;99.90
2050;DHT22;8478;49.208;8.806;2023-03-21T04:42:32;11.70;99.90
2050;DHT22;8478;49.208;8.806;2023-03-21T04:44:58;11.70;99.90
2050;DHT22;8478;49.208;8.806;2023-03-21T04:47:24;11.70;99.90
2050;DHT22;8478;49.208;8.806;2023-03-21T04:49:50;11.70;99.90
2050;DHT22;8478;49.208;8.806;2023-03-21T04:52:18;11.70;99.90
2050;DHT22;8478;49.208;8.806;2023-03-21T04:54:44;11.70;99.90
2050;DHT22;8478;49.208;8.806;2023-03-21T04:57:09;11.70;99.90
2050;DHT22;8478;49.208;8.806;2023-03-21T04:59:35;11.70;99.90
2050;DHT22;8478;49.208;8.806;2023-03-21T05:02:01;11.70;99.90
2050;DHT22;8478;49.208;8.806;2023-03-21T05:04:27;11.70;99.90
2050;DHT22;8478;49.208;8.806;2023-03-21T05:06:53;11.70;99.90
2050;DHT22;8478;49.208;8.806;2023-03-21T05:09:19;11.70;99.90
2050;DHT22;8478;49.208;8.806;2023-03-21T05:11:46;11.70;99.90
2050;DHT22;8478;49.208;8.806;2023-03-21T05:14:21;11.70;99.90
2050;DHT22;8478;49.208;8.806;2023-03-21T05:16:47;11.70;99.90
2050;DHT22;8478;49.208;8.806;2023-03-21T05:19:18;11.70;99.90
2050;DHT22;8478;49.208;8.806;2023-03-21T05:21:45;11.70;99.90
2050;DHT22;8478;49.208;8.806;2023-03-21T05:24:19;11.70;99.90
2050;DHT22;8478;49.208;8.806;2023-03-21T05:26:45;11.60;99.90
2050;DHT22;8478;49.208;8.806;2023-03-21T05:29:20;11.70;99.90
2050;DHT22;8478;49.208;8.806;2023-03-21T05:31:46;11.70;99.90
2050;DHT22;8478;49.208;8.806;2023-03-21T05:34:12;11.70;99.90
2050;DHT22;8478;49.208;8.806;2023-03-21T05:36:39;11.60;99.90
2050;DHT22;8478;49.208;8.806;2023-03-21T05:39:05;11.70;99.90
2050;DHT22;8478;49.208;8.806;2023-03-21T05:41:31;11.70;99.90
2050;DHT22;8478;49.208;8.806;2023-03-21T05:43:56;11.70;99.90
2050;DHT22;8478;49.208;8.806;2023-03-21T05:46:22;11.70;99.90
2050;DHT22;8478;49.208;8.806;2023-03-21T05:48:48;11.60;99.90
2050;DHT22;8478;49.208;8.806;2023-03-21T05:51:13;11.70;99.90
2050;DHT22;8478;49.208;8.806;2023-03-21T05:53:39;11.60;99.90
2050;DHT22;8478;49.208;8.806;2023-03-21T05:56:06;11.70;99.90
2050;DHT22;8478;49.208;8.806;2023-03-21T05:58:31;11.70;99.90
2050;DHT22;8478;49.208;8.806;2023-03-21T06:00:57;11.70;99.90
2050;DHT22;8478;49.208;8.806;2023-03-21T06:03:23;11.60;99.90
2050;DHT22;8478;49.208;8.806;2023-03-21T06:05:49;11.70;99.90
2050;DHT22;8478;49.208;8.806;2023-03-21T06:08:15;11.60;99.90
2050;DHT22;8478;49.208;8.806;2023-03-21T06:10:41;11.70;99.90
2050;DHT22;8478;49.208;8.806;2023-03-21T06:13:06;11.70;99.90
2050;DHT22;8478;49.208;8.806;2023-03-21T06:15:32;11.60;99.90
2050;DHT22;8478;49.208;8.806;2023-03-21T06:17:58;11.70;99.90
2050;DHT22;8478;49.208;8.806;2023-03-21T06:20:23;11.60;99.90
2050;DHT22;8478;49.208;8.806;2023-03-21T06:22:49;11.60;99.90
2050;DHT22;8478;49.208;8.806;2023-03-21T06:25:15;11.60;99.90
2050;DHT22;8478;49.208;8.806;2023-03-21T06:27:41;11.60;99.90
2050;DHT22;8478;49.208;8.806;2023-03-21T06:30:08;11.60;99.90
2050;DHT22;8478;49.208;8.806;2023-03-21T06:32:33;11.60;99.90
2050;DHT22;8478;49.208;8.806;2023-03-21T06:34:59;11.60;99.90
2050;DHT22;8478;49.208;8.806;2023-03-21T06:37:25;11.60;99.90
2050;DHT22;8478;49.208;8.806;2023-03-21T06:39:51;11.60;99.90
2050;DHT22;8478;49.208;8.806;2023-03-21T06:42:17;11.60;99.90
2050;DHT22;8478;49.208;8.806;2023-03-21T06:44:43;11.60;99.90
2050;DHT22;8478;49.208;8.806;2023-03-21T06:47:09;11.60;99.90
2050;DHT22;8478;49.208;8.806;2023-03-21T06:49:35;11.60;99.90
2050;DHT22;8478;49.208;8.806;2023-03-21T06:52:01;11.60;99.90
2050;DHT22;8478;49.208;8.806;2023-03-21T06:54:27;11.60;99.90
2050;DHT22;8478;49.208;8.806;2023-03-21T06:56:52;11.60;99.90
2050;DHT22;8478;49.208;8.806;2023-03-21T06:59:19;11.60;99.90
2050;DHT22;8478;49.208;8.806;2023-03-21T07:01:45;11.60;99.90
2050;DHT22;8478;49.208;8.806;2023-03-21T07:04:11;11.60;99.90
2050;DHT22;8478;49.208;8.806;2023-03-21T07:06:37;11.60;99.90
2050;DHT22;8478;49.208;8.806;2023-03-21T07:09:03;11.60;99.90
2050;DHT22;8478;49.208;8.806;2023-03-21T07:11:30;11.60;99.90
2050;DHT22;8478;49.208;8.806;2023-03-21T07:13:56;11.60;99.90
2050;DHT22;8478;49.208;8.806;2023-03-21T07:16:22;11.60;99.90
2050;DHT22;8478;49.208;8.806;2023-03-21T07:18:49;11.60;99.90
2050;DHT22;8478;49.208;8.806;2023-03-21T07:21:15;11.60;99.90
2050;DHT22;8478;49.208;8.806;2023-03-21T07:23:41;11.60;99.90
2050;DHT22;8478;49.208;8.806;2023-03-21T07:26:06;11.60;99.90
2050;DHT22;8478;49.208;8.806;2023-03-21T07:28:32;11.60;99.90
2050;DHT22;8478;49.208;8.806;2023-03-21T07:31:05;11.60;99.90
2050;DHT22;8478;49.208;8.806;2023-03-21T07:33:32;11.70;99.90
2050;DHT22;8478;49.208;8.806;2023-03-21T07:35:58;11.70;99.90
2050;DHT22;8478;49.208;8.806;2023-03-21T07:38:25;11.70;99.90
2050;DHT22;8478;49.208;8.806;2023-03-21T07:40:52;11.60;99.90
2050;DHT22;8478;49.208;8.806;2023-03-21T07:43:18;11.60;99.90
2050;DHT22;8478;49.208;8.806;2023-03-21T07:45:44;11.60;99.90
2050;DHT22;8478;49.208;8.806;2023-03-21T07:48:11;11.60;99.90
2050;DHT22;8478;49.208;8.806;2023-03-21T07:50:38;11.70;99.90
2050;DHT22;8478;49.208;8.806;2023-03-21T07:53:04;11.70;99.90
2050;DHT22;8478;49.208;8.806;2023-03-21T07:55:30;11.70;99.90
2050;DHT22;8478;49.208;8.806;2023-03-21T07:58:00;11.70;99.90
2050;DHT22;8478;49.208;8.806;2023-03-21T08:00:25;11.70;99.90
2050;DHT22;8478;49.208;8.806;2023-03-21T08:02:52;11.70;99.90
2050;DHT22;8478;49.208;8.806;2023-03-21T08:05:32;11.70;99.90
2050;DHT22;8478;49.208;8.806;2023-03-21T08:07:59;11.70;99.90
2050;DHT22;8478;49.208;8.806;2023-03-21T08:10:25;11.70;99.90
2050;DHT22;8478;49.208;8.806;2023-03-21T08:12:51;11.70;99.90
2050;DHT22;8478;49.208;8.806;2023-03-21T08:15:17;11.70;99.90
2050;DHT22;8478;49.208;8.806;2023-03-21T08:17:43;11.70;99.90
2050;DHT22;8478;49.208;8.806;2023-03-21T08:20:15;11.70;99.90
2050;DHT22;8478;49.208;8.806;2023-03-21T08:22:43;11.70;99.90
2050;DHT22;8478;49.208;8.806;2023-03-21T08:25:14;11.70;99.90
2050;DHT22;8478;49.208;8.806;2023-03-21T08:27:43;11.70;99.90
2050;DHT22;8478;49.208;8.806;2023-03-21T08:30:11;11.70;99.90
2050;DHT22;8478;49.208;8.806;2023-03-21T08:32:38;11.70;99.90
2050;DHT22;8478;49.208;8.806;2023-03-21T08:35:05;11.70;99.90
2050;DHT22;8478;49.208;8.806;2023-03-21T08:37:35;11.70;99.90
2050;DHT22;8478;49.208;8.806;2023-03-21T08:40:01;11.70;99.90
2050;DHT22;8478;49.208;8.806;2023-03-21T08:42:28;11.70;99.90
2050;DHT22;8478;49.208;8.806;2023-03-21T08:44:53;11.70;99.90
2050;DHT22;8478;49.208;8.806;2023-03-21T08:47:19;11.70;99.90
2050;DHT22;8478;49.208;8.806;2023-03-21T08:49:45;11.70;99.90
2050;DHT22;8478;49.208;8.806;2023-03-21T08:52:11;11.70;99.90
2050;DHT22;8478;49.208;8.806;2023-03-21T08:54:37;11.70;99.90
2050;DHT22;8478;49.208;8.806;2023-03-21T08:57:02;11.70;99.90
2050;DHT22;8478;49.208;8.806;2023-03-21T08:59:28;11.70;99.90
2050;DHT22;8478;49.208;8.806;2023-03-21T09:01:54;11.70;99.90
2050;DHT22;8478;49.208;8.806;2023-03-21T09:04:20;11.70;99.90
2050;DHT22;8478;49.208;8.806;2023-03-21T09:06:46;11.70;99.90
2050;DHT22;8478;49.208;8.806;2023-03-21T09:09:14;11.70;99.90
2050;DHT22;8478;49.208;8.806;2023-03-21T09:11:40;11.70;99.90
2050;DHT22;8478;49.208;8.806;2023-03-21T09:14:06;11.70;99.90
2050;DHT22;8478;49.208;8.806;2023-03-21T09:16:32;11.70;99.90
2050;DHT22;8478;49.208;8.806;2023-03-21T09:18:58;11.70;99.90
2050;DHT22;8478;49.208;8.806;2023-03-21T09:21:25;11.70;99.90
2050;DHT22;8478;49.208;8.806;2023-03-21T09:23:53;11.80;99.90
2050;DHT22;8478;49.208;8.806;2023-03-21T09:26:22;11.70;99.90
2050;DHT22;8478;49.208;8.806;2023-03-21T09:28:48;11.80;99.90
2050;DHT22;8478;49.208;8.806;2023-03-21T09:31:14;11.70;99.90
2050;DHT22;8478;49.208;8.806;2023-03-21T09:33:46;11.80;99.90
2050;DHT22;8478;49.208;8.806;2023-03-21T09:36:12;11.80;99.90
2050;DHT22;8478;49.208;8.806;2023-03-21T09:38:42;11.80;99.90
2050;DHT22;8478;49.208;8.806;2023-03-21T09:49:37;11.80;99.90
2050;DHT22;8478;49.208;8.806;2023-03-21T09:52:16;11.80;99.90
2050;DHT22;8478;49.208;8.806;2023-03-21T09:54:44;11.80;99.90
2050;DHT22;8478;49.208;8.806;2023-03-21T09:59:52;11.90;99.90
2050;DHT22;8478;49.208;8.806;2023-03-21T10:04:44;11.90;99.90
2050;DHT22;8478;49.208;8.806;2023-03-21T10:07:12;11.90;99.90
2050;DHT22;8478;49.208;8.806;2023-03-21T10:09:42;11.90;99.90
2050;DHT22;8478;49.208;8.806;2023-03-21T10:12:19;11.90;99.90
2050;DHT22;8478;49.208;8.806;2023-03-21T10:14:48;11.90;99.90
2050;DHT22;8478;49.208;8.806;2023-03-21T10:17:36;11.90;99.90
2050;DHT22;8478;49.208;8.806;2023-03-21T10:20:51;11.90;99.90
2050;DHT22;8478;49.208;8.806;2023-03-21T10:23:00;11.90;99.90
2050;DHT22;8478;49.208;8.806;2023-03-21T10:25:36;11.90;99.90
2050;DHT22;8478;49.208;8.806;2023-03-21T10:28:06;11.90;99.90
2050;DHT22;8478;49.208;8.806;2023-03-21T10:31:01;11.90;99.90
2050;DHT22;8478;49.208;8.806;2023-03-21T10:33:33;11.90;99.90
2050;DHT22;8478;49.208;8.806;2023-03-21T10:36:10;11.90;99.90
2050;DHT22;8478;49.208;8.806;2023-03-21T10:38:41;11.90;99.90
2050;DHT22;8478;49.208;8.806;2023-03-21T10:41:10;11.90;99.90
2050;DHT22;8478;49.208;8.806;2023-03-21T10:43:37;11.90;99.90
2050;DHT22;8478;49.208;8.806;2023-03-21T10:46:07;11.90;99.90
2050;DHT22;8478;49.208;8.806;2023-03-21T10:48:39;11.90;99.90
2050;DHT22;8478;49.208;8.806;2023-03-21T10:51:07;11.90;99.90
2050;DHT22;8478;49.208;8.806;2023-03-21T10:53:45;12.00;99.90
2050;DHT22;8478;49.208;8.806;2023-03-21T10:56:14;12.00;99.90
2050;DHT22;8478;49.208;8.806;2023-03-21T10:58:46;12.00;99.90
2050;DHT22;8478;49.208;8.806;2023-03-21T11:01:28;12.00;99.90
2050;DHT22;8478;49.208;8.806;2023-03-21T11:03:58;12.00;99.90
2050;DHT22;8478;49.208;8.806;2023-03-21T11:06:30;12.00;99.90
2050;DHT22;8478;49.208;8.806;2023-03-21T11:09:04;12.00;99.90
2050;DHT22;8478;49.208;8.806;2023-03-21T11:11:37;12.00;99.90
2050;DHT22;8478;49.208;8.806;2023-03-21T11:14:06;12.00;99.90
2050;DHT22;8478;49.208;8.806;2023-03-21T11:16:37;12.00;99.90
2050;DHT22;8478;49.208;8.806;2023-03-21T11:19:17;12.00;99.90
2050;DHT22;8478;49.208;8.806;2023-03-21T11:21:44;12.00;99.90
2050;DHT22;8478;49.208;8.806;2023-03-21T11:24:13;12.00;99.90
2050;DHT22;8478;49.208;8.806;2023-03-21T11:26:41;12.00;99.90
2050;DHT22;8478;49.208;8.806;2023-03-21T11:34:47;12.00;99.90
2050;DHT22;8478;49.208;8.806;2023-03-21T11:37:38;12.00;99.90
2050;DHT22;8478;49.208;8.806;2023-03-21T11:40:25;12.00;99.90
2050;DHT22;8478;49.208;8.806;2023-03-21T11:43:03;12.00;99.90
2050;DHT22;8478;49.208;8.806;2023-03-21T11:48:36;12.00;99.90
2050;DHT22;8478;49.208;8.806;2023-03-21T11:56:23;12.00;99.90
2050;DHT22;8478;49.208;8.806;2023-03-21T12:04:39;12.10;99.90
2050;DHT22;8478;49.208;8.806;2023-03-21T12:24:26;12.00;99.90
2050;DHT22;8478;49.208;8.806;2023-03-21T12:29:48;12.10;99.90
2050;DHT22;8478;49.208;8.806;2023-03-21T12:37:49;12.10;99.90
2050;DHT22;8478;49.208;8.806;2023-03-21T12:43:32;12.10;99.90
2050;DHT22;8478;49.208;8.806;2023-03-21T12:46:03;12.10;99.90
2050;DHT22;8478;49.208;8.806;2023-03-21T12:49:00;12.10;99.90
2050;DHT22;8478;49.208;8.806;2023-03-21T12:51:33;12.10;99.90
2050;DHT22;8478;49.208;8.806;2023-03-21T12:57:00;12.10;99.90
2050;DHT22;8478;49.208;8.806;2023-03-21T12:59:40;12.10;99.90
2050;DHT22;8478;49.208;8.806;2023-03-21T13:02:30;12.10;99.90
2050;DHT22;8478;49.208;8.806;2023-03-21T13:05:09;12.10;99.90
2050;DHT22;8478;49.208;8.806;2023-03-21T13:07:44;12.10;99.90
2050;DHT22;8478;49.208;8.806;2023-03-21T13:10:17;12.10;99.90
2050;DHT22;8478;49.208;8.806;2023-03-21T13:13:33;12.10;99.90
2050;DHT22;8478;49.208;8.806;2023-03-21T13:16:23;12.10;99.90
2050;DHT22;8478;49.208;8.806;2023-03-21T13:26:35;12.10;99.90
2050;DHT22;8478;49.208;8.806;2023-03-21T13:29:20;12.10;99.90
2050;DHT22;8478;49.208;8.806;2023-03-21T13:31:48;12.10;99.90
2050;DHT22;8478;49.208;8.806;2023-03-21T13:34:14;12.10;99.90
2050;DHT22;8478;49.208;8.806;2023-03-21T13:36:44;12.10;99.90
2050;DHT22;8478;49.208;8.806;2023-03-21T13:39:23;12.10;99.90
2050;DHT22;8478;49.208;8.806;2023-03-21T13:41:50;12.10;99.90
2050;DHT22;8478;49.208;8.806;2023-03-21T13:44:49;12.20;99.90
2050;DHT22;8478;49.208;8.806;2023-03-21T13:50:51;12.10;99.90
2050;DHT22;8478;49.208;8.806;2023-03-21T13:53:22;12.10;99.90
2050;DHT22;8478;49.208;8.806;2023-03-21T13:56:08;12.10;99.90
2050;DHT22;8478;49.208;8.806;2023-03-21T14:03:59;12.20;99.90
2050;DHT22;8478;49.208;8.806;2023-03-21T14:06:33;12.30;99.90
2050;DHT22;8478;49.208;8.806;2023-03-21T14:11:27;12.70;99.90
2050;DHT22;8478;49.208;8.806;2023-03-21T14:13:53;12.70;99.90
2050;DHT22;8478;49.208;8.806;2023-03-21T14:16:20;12.60;99.90
2050;DHT22;8478;49.208;8.806;2023-03-21T14:18:59;12.50;99.90
2050;DHT22;8478;49.208;8.806;2023-03-21T14:21:33;12.40;99.90
2050;DHT22;8478;49.208;8.806;2023-03-21T14:26:31;12.40;99.90
2050;DHT22;8478;49.208;8.806;2023-03-21T14:28:57;12.30;99.90
2050;DHT22;8478;49.208;8.806;2023-03-21T14:31:23;12.30;99.90
2050;DHT22;8478;49.208;8.806;2023-03-21T14:33:55;12.30;99.90
2050;DHT22;8478;49.208;8.806;2023-03-21T14:36:30;12.30;99.90
2050;DHT22;8478;49.208;8.806;2023-03-21T14:41:33;12.30;99.90
2050;DHT22;8478;49.208;8.806;2023-03-21T14:44:17;12.30;99.90
2050;DHT22;8478;49.208;8.806;2023-03-21T14:47:04;12.30;99.90
2050;DHT22;8478;49.208;8.806;2023-03-21T14:49:35;12.30;99.90
2050;DHT22;8478;49.208;8.806;2023-03-21T14:52:08;12.30;99.90
2050;DHT22;8478;49.208;8.806;2023-03-21T14:54:38;12.30;99.90
2050;DHT22;8478;49.208;8.806;2023-03-21T14:57:09;12.30;99.90
2050;DHT22;8478;49.208;8.806;2023-03-21T14:59:37;12.30;99.90
2050;DHT22;8478;49.208;8.806;2023-03-21T15:02:17;12.30;99.90
2050;DHT22;8478;49.208;8.806;2023-03-21T15:04:49;12.30;99.90
2050;DHT22;8478;49.208;8.806;2023-03-21T15:07:27;12.30;99.90
2050;DHT22;8478;49.208;8.806;2023-03-21T15:09:55;12.30;99.90
2050;DHT22;8478;49.208;8.806;2023-03-21T15:12:22;12.30;99.90
2050;DHT22;8478;49.208;8.806;2023-03-21T15:14:47;12.30;99.90
2050;DHT22;8478;49.208;8.806;2023-03-21T15:17:13;12.30;99.90
2050;DHT22;8478;49.208;8.806;2023-03-21T15:19:39;12.30;99.90
2050;DHT22;8478;49.208;8.806;2023-03-21T15:22:14;12.30;99.90
2050;DHT22;8478;49.208;8.806;2023-03-21T15:24:45;12.40;99.90
2050;DHT22;8478;49.208;8.806;2023-03-21T15:27:15;12.40;99.90
2050;DHT22;8478;49.208;8.806;2023-03-21T15:29:42;12.30;99.90
2050;DHT22;8478;49.208;8.806;2023-03-21T15:32:16;12.40;99.90
2050;DHT22;8478;49.208;8.806;2023-03-21T15:34:44;12.40;99.90
2050;DHT22;8478;49.208;8.806;2023-03-21T15:37:26;12.40;99.90
2050;DHT22;8478;49.208;8.806;2023-03-21T15:39:53;12.40;99.90
2050;DHT22;8478;49.208;8.806;2023-03-21T15:42:29;12.40;99.90
2050;DHT22;8478;49.208;8.806;2023-03-21T15:44:59;12.40;99.90
2050;DHT22;8478;49.208;8.806;2023-03-21T15:47:49;12.40;99.90
2050;DHT22;8478;49.208;8.806;2023-03-21T15:52:54;12.40;99.90
2050;DHT22;8478;49.208;8.806;2023-03-21T15:55:56;12.40;99.90
2050;DHT22;8478;49.208;8.806;2023-03-21T15:58:31;12.40;99.90
2050;DHT22;8478;49.208;8.806;2023-03-21T16:01:03;12.40;99.90
2050;DHT22;8478;49.208;8.806;2023-03-21T16:03:31;12.40;99.90
2050;DHT22;8478;49.208;8.806;2023-03-21T16:08:52;12.40;99.90
2050;DHT22;8478;49.208;8.806;2023-03-21T16:13:47;12.40;99.90
2050;DHT22;8478;49.208;8.806;2023-03-21T16:16:24;12.40;99.90
2050;DHT22;8478;49.208;8.806;2023-03-21T16:18:53;12.40;99.90
2050;DHT22;8478;49.208;8.806;2023-03-21T16:21:22;12.40;99.90
2050;DHT22;8478;49.208;8.806;2023-03-21T16:23:48;12.40;99.90
2050;DHT22;8478;49.208;8.806;2023-03-21T16:26:20;12.40;99.90
2050;DHT22;8478;49.208;8.806;2023-03-21T16:28:46;12.40;99.90
2050;DHT22;8478;49.208;8.806;2023-03-21T16:31:18;12.40;99.90
2050;DHT22;8478;49.208;8.806;2023-03-21T16:33:45;12.40;99.90
2050;DHT22;8478;49.208;8.806;2023-03-21T16:36:16;12.40;99.90
2050;DHT22;8478;49.208;8.806;2023-03-21T16:38:44;12.40;99.90
2050;DHT22;8478;49.208;8.806;2023-03-21T16:41:11;12.40;99.90
2050;DHT22;8478;49.208;8.806;2023-03-21T16:43:37;12.50;99.90
2050;DHT22;8478;49.208;8.806;2023-03-21T16:46:27;12.40;99.90
2050;DHT22;8478;49.208;8.806;2023-03-21T16:48:56;12.40;99.90
2050;DHT22;8478;49.208;8.806;2023-03-21T16:51:34;12.40;99.90
2050;DHT22;8478;49.208;8.806;2023-03-21T16:54:01;12.40;99.90
2050;DHT22;8478;49.208;8.806;2023-03-21T16:56:35;12.40;99.90
2050;DHT22;8478;49.208;8.806;2023-03-21T16:59:01;12.50;99.90
2050;DHT22;8478;49.208;8.806;2023-03-21T17:01:27;12.50;99.90
2050;DHT22;8478;49.208;8.806;2023-03-21T17:03:55;12.40;99.90
2050;DHT22;8478;49.208;8.806;2023-03-21T17:06:27;12.50;99.90
2050;DHT22;8478;49.208;8.806;2023-03-21T17:08:54;12.40;99.90
2050;DHT22;8478;49.208;8.806;2023-03-21T17:11:22;12.40;99.90
2050;DHT22;8478;49.208;8.806;2023-03-21T17:13:49;12.40;99.90
2050;DHT22;8478;49.208;8.806;2023-03-21T17:16:17;12.40;99.90
2050;DHT22;8478;49.208;8.806;2023-03-21T17:18:45;12.40;99.90
2050;DHT22;8478;49.208;8.806;2023-03-21T17:21:20;12.40;99.90
2050;DHT22;8478;49.208;8.806;2023-03-21T17:23:46;12.50;99.90
2050;DHT22;8478;49.208;8.806;2023-03-21T17:26:13;12.50;99.90
2050;DHT22;8478;49.208;8.806;2023-03-21T17:28:39;12.40;99.90
2050;DHT22;8478;49.208;8.806;2023-03-21T17:31:14;12.50;99.90
2050;DHT22;8478;49.208;8.806;2023-03-21T17:33:40;12.40;99.90
2050;DHT22;8478;49.208;8.806;2023-03-21T17:36:23;12.50;99.90
2050;DHT22;8478;49.208;8.806;2023-03-21T17:38:50;12.50;99.90
2050;DHT22;8478;49.208;8.806;2023-03-21T17:41:18;12.50;99.90
2050;DHT22;8478;49.208;8.806;2023-03-21T17:43:44;12.40;99.90
2050;DHT22;8478;49.208;8.806;2023-03-21T17:46:16;12.40;99.90
2050;DHT22;8478;49.208;8.806;2023-03-21T17:48:43;12.50;99.90
2050;DHT22;8478;49.208;8.806;2023-03-21T17:51:09;12.40;99.90
2050;DHT22;8478;49.208;8.806;2023-03-21T17:53:44;12.40;99.90
2050;DHT22;8478;49.208;8.806;2023-03-21T17:56:24;12.40;99.90
2050;DHT22;8478;49.208;8.806;2023-03-21T17:58:57;12.40;99.90
2050;DHT22;8478;49.208;8.806;2023-03-21T18:01:24;12.40;99.90
2050;DHT22;8478;49.208;8.806;2023-03-21T18:03:50;12.40;99.90
2050;DHT22;8478;49.208;8.806;2023-03-21T18:06:22;12.40;99.90
2050;DHT22;8478;49.208;8.806;2023-03-21T18:08:49;12.40;99.90
2050;DHT22;8478;49.208;8.806;2023-03-21T18:11:16;12.50;99.90
2050;DHT22;8478;49.208;8.806;2023-03-21T18:13:42;12.40;99.90
2050;DHT22;8478;49.208;8.806;2023-03-21T18:16:17;12.40;99.90
2050;DHT22;8478;49.208;8.806;2023-03-21T18:18:43;12.40;99.90
2050;DHT22;8478;49.208;8.806;2023-03-21T18:21:15;12.40;99.90
2050;DHT22;8478;49.208;8.806;2023-03-21T18:23:42;12.40;99.90
2050;DHT22;8478;49.208;8.806;2023-03-21T18:26:10;12.40;99.90
2050;DHT22;8478;49.208;8.806;2023-03-21T18:28:37;12.40;99.90